DAUU/OGX METAR and TAF weather

Enter ICAO airport designator
Station Type Date Time Source
DAUU METAR 2019/07/17 18:00 UTC NOAA

DAUU 171800Z 07008KT 9999 SCT046 SCT100 39/06 Q1010


Station Type Date Time Source
DAUU Decoded METAR 2019/07/17 18:00 UTC NOAA

Ouargla, Algeria (DAUU) 31-55N 005-24E 141M
Jul 17, 2019 - 02:00 PM EDT / 2019.07.17 1800 UTC
Wind: from the ENE (070 degrees) at 9 MPH (8 KT):0
Visibility: greater than 7 mile(s):0
Sky conditions: partly cloudy
Temperature: 102 F (39 C)
Dew Point: 42 F (6 C)
Relative Humidity: 13%
Pressure (altimeter): 29.83 in. Hg (1010 hPa)
ob: DAUU 171800Z 07008KT 9999 SCT046 SCT100 39/06 Q1010
cycle: 18

Station Type Date Time Source
DAUU TAF 2017/11/09 18:03 UTC NOAA

TAF DAUU 091700Z 0918/1009 34012KT 9999 FEW040 SCT100 PROB40
TEMPO 0918/0924 34015G25KT 5000 -TSRA FEW036CB

Example: see airport list